Airport ID:KTME
Update Time (UTC):24/09/2018 23:22
Wind Speed (Knots):7
Wind Direction (Magnetic):190
Temperature (°C):29.3
Dew Point (°C):22.8
Humidity (%):67.8
Altimeter (inHg):29.86
Density Altitude (Feet):02300
Visibility (Miles):10
Clouds (Hundreds of feet):CLR
Present Weather:
METAR:METAR KTME 242320Z AUTO 20008KT 10SM CLR 29/23 A2986 RMK AO2

The data displayed is for advisory purposes only and is not to be used for flight planning or operations.

This page is not automatically refreshed. Reload the page to see current data.